Time;durP1;ratioP1;P1;durP2;ratioP2;P2;SDS_P1;SDS_P2;PMS_P1;PMS_P2;Temp;Humidity;BMP_temperature;BMP_pressure;BME280_temperature;BME280_humidity;BME280_pressure;Samples;Min_cycle;Max_cycle;Signal;HPM_P1;HPM_P2
2022/06/29 00:00:37;;;;;;;5.33;4.70;;;16.90;99.90;;;;;;5051293;28;20696;-82
2022/06/29 00:03:04;;;;;;;7.53;5.17;;;16.90;99.90;;;;;;5051678;28;20328;-83
2022/06/29 00:05:31;;;;;;;5.20;4.23;;;16.80;99.90;;;;;;5053133;28;20210;-82
2022/06/29 00:08:00;;;;;;;6.47;4.93;;;16.80;99.90;;;;;;5048397;28;20519;-82
2022/06/29 00:10:36;;;;;;;6.67;4.90;;;16.80;99.90;;;;;;5045107;28;20236;-82
2022/06/29 00:13:03;;;;;;;6.73;4.80;;;16.70;99.90;;;;;;5050365;28;20605;-82
2022/06/29 00:15:30;;;;;;;6.90;4.30;;;16.70;99.90;;;;;;5051449;28;20221;-86
2022/06/29 00:17:57;;;;;;;4.47;4.03;;;16.60;99.90;;;;;;5048081;28;20663;-83
2022/06/29 00:20:24;;;;;;;4.90;3.73;;;16.60;99.90;;;;;;5045630;28;20670;-82
2022/06/29 00:22:51;;;;;;;7.43;4.63;;;16.60;99.90;;;;;;5044770;28;20291;-83
2022/06/29 00:25:17;;;;;;;6.00;4.70;;;16.70;99.90;;;;;;5046133;28;20251;-83
2022/06/29 00:27:44;;;;;;;5.60;4.83;;;16.70;99.90;;;;;;5041554;28;20267;-82
2022/06/29 00:30:12;;;;;;;6.60;4.57;;;16.60;99.90;;;;;;5039716;28;20328;-83
2022/06/29 00:32:40;;;;;;;5.60;5.10;;;16.60;99.90;;;;;;5036886;28;20736;-82
2022/06/29 00:35:07;;;;;;;7.63;4.40;;;16.60;99.90;;;;;;5040000;28;20504;-81
2022/06/29 00:37:34;;;;;;;5.17;4.50;;;16.60;99.90;;;;;;5036455;28;20630;-84
2022/06/29 00:40:03;;;;;;;5.20;4.47;;;16.60;99.90;;;;;;5039813;28;20209;-83
2022/06/29 00:42:31;;;;;;;6.87;4.73;;;16.60;99.90;;;;;;5037530;28;20212;-83
2022/06/29 00:44:59;;;;;;;7.47;4.30;;;16.50;99.90;;;;;;5037392;28;20639;-83
2022/06/29 00:47:26;;;;;;;5.80;3.97;;;16.50;99.90;;;;;;5038839;28;20230;-82
2022/06/29 00:49:53;;;;;;;6.20;4.50;;;16.50;99.90;;;;;;5035825;28;20295;-82
2022/06/29 00:52:24;;;;;;;6.23;4.23;;;16.50;99.90;;;;;;5037012;28;20218;-83
2022/06/29 00:54:57;;;;;;;10.63;4.90;;;16.50;99.90;;;;;;5037642;28;20617;-83
2022/06/29 00:57:26;;;;;;;5.67;4.40;;;16.50;99.90;;;;;;5035729;28;20214;-82
2022/06/29 00:59:58;;;;;;;6.40;3.90;;;16.40;99.90;;;;;;5035449;28;20697;-82
2022/06/29 01:02:33;;;;;;;5.70;4.20;;;16.40;99.90;;;;;;5039841;28;20227;-82
2022/06/29 01:05:00;;;;;;;6.00;4.67;;;16.40;99.90;;;;;;5038453;28;20213;-84
2022/06/29 01:07:30;;;;;;;7.17;5.13;;;16.40;99.90;;;;;;5036307;28;20275;-83
2022/06/29 01:09:57;;;;;;;6.33;4.27;;;16.40;99.90;;;;;;5035695;28;20251;-83
2022/06/29 01:12:24;;;;;;;5.00;3.83;;;16.40;99.90;;;;;;5037446;28;20213;-83
2022/06/29 01:14:53;;;;;;;4.83;4.20;;;16.40;99.90;;;;;;5040080;28;20206;-83
2022/06/29 01:17:22;;;;;;;5.40;3.93;;;16.40;99.90;;;;;;5039103;28;20302;-83
2022/06/29 01:19:49;;;;;;;5.80;4.03;;;16.40;99.90;;;;;;5034865;28;20237;-83
2022/06/29 01:22:18;;;;;;;4.40;3.97;;;16.40;99.90;;;;;;5035419;28;20692;-82
2022/06/29 01:24:47;;;;;;;4.53;3.30;;;16.40;99.90;;;;;;5039159;28;20209;-83
2022/06/29 01:27:15;;;;;;;5.80;4.10;;;16.40;99.90;;;;;;5041138;28;20213;-82
2022/06/29 01:29:43;;;;;;;6.70;3.90;;;16.40;99.90;;;;;;5034945;28;20237;-81
2022/06/29 01:32:11;;;;;;;5.23;3.67;;;16.40;99.90;;;;;;5036390;28;20263;-82
2022/06/29 01:34:38;;;;;;;6.20;3.93;;;16.40;99.90;;;;;;5037952;28;20319;-82
2022/06/29 01:37:06;;;;;;;4.47;3.97;;;16.40;99.90;;;;;;5035587;28;20210;-83
2022/06/29 01:39:34;;;;;;;5.53;4.20;;;16.50;99.90;;;;;;5038490;28;20225;-83
2022/06/29 01:42:01;;;;;;;4.23;3.70;;;16.40;99.90;;;;;;5035631;28;20221;-84
2022/06/29 01:44:28;;;;;;;6.17;4.30;;;16.40;99.90;;;;;;5038305;28;20201;-82
2022/06/29 01:46:55;;;;;;;5.93;3.97;;;16.40;99.90;;;;;;5036809;28;20206;-83
2022/06/29 01:49:23;;;;;;;5.77;4.73;;;16.40;99.90;;;;;;5037289;28;20236;-83
2022/06/29 01:51:50;;;;;;;5.23;3.80;;;16.40;99.90;;;;;;5038852;28;20274;-82
2022/06/29 01:54:17;;;;;;;6.17;4.63;;;16.30;99.90;;;;;;5036654;28;20220;-85
2022/06/29 01:56:44;;;;;;;7.17;4.23;;;16.30;99.90;;;;;;5039319;28;20202;-83
2022/06/29 01:59:11;;;;;;;6.40;4.23;;;16.30;99.90;;;;;;5040621;28;20201;-83
2022/06/29 02:01:38;;;;;;;4.57;3.73;;;16.20;99.90;;;;;;5046623;28;20368;-82
2022/06/29 02:04:05;;;;;;;6.23;4.47;;;16.20;99.90;;;;;;5042566;28;20639;-83
2022/06/29 02:06:32;;;;;;;5.87;3.90;;;16.20;99.90;;;;;;5039872;28;20689;-82
2022/06/29 02:08:59;;;;;;;6.23;3.83;;;16.20;99.90;;;;;;5043968;28;20297;-82
2022/06/29 02:11:26;;;;;;;4.90;4.40;;;16.10;99.90;;;;;;5031569;28;20252;-82
2022/06/29 02:13:53;;;;;;;8.17;4.23;;;16.10;99.90;;;;;;5030792;28;20573;-83
2022/06/29 02:16:19;;;;;;;5.23;4.73;;;16.00;99.90;;;;;;5030613;28;20273;-82
2022/06/29 02:18:46;;;;;;;6.30;4.30;;;15.90;99.90;;;;;;5030869;28;20236;-84
2022/06/29 02:21:13;;;;;;;4.40;3.97;;;15.90;99.90;;;;;;5032055;28;20228;-83
2022/06/29 02:23:40;;;;;;;7.03;4.47;;;15.80;99.90;;;;;;5073905;28;20205;-82
2022/06/29 02:26:07;;;;;;;5.43;4.20;;;15.80;99.90;;;;;;5041703;28;20211;-85
2022/06/29 02:28:34;;;;;;;5.30;4.83;;;15.70;99.90;;;;;;5041513;28;20221;-83
2022/06/29 02:36:31;;;;;;;4.73;4.33;;;15.60;99.90;;;;;;5041495;28;20213;-84
2022/06/29 02:38:58;;;;;;;6.30;4.87;;;15.60;99.90;;;;;;5038882;28;20673;-84
2022/06/29 02:41:25;;;;;;;6.37;5.30;;;15.50;99.90;;;;;;5040364;28;20213;-82
2022/06/29 02:43:52;;;;;;;7.50;5.87;;;15.50;99.90;;;;;;5039857;28;20237;-84
2022/06/29 02:46:18;;;;;;;5.73;4.50;;;15.40;99.90;;;;;;5038204;28;20209;-82
2022/06/29 02:48:45;;;;;;;5.27;4.70;;;15.40;99.90;;;;;;5038125;28;20222;-84
2022/06/29 02:51:12;;;;;;;6.70;4.90;;;15.40;99.90;;;;;;5041711;28;20654;-83
2022/06/29 02:53:39;;;;;;;6.57;5.00;;;15.30;99.90;;;;;;5039286;28;20206;-83
2022/06/29 02:56:07;;;;;;;7.03;5.73;;;15.30;99.90;;;;;;5040963;28;20710;-85
2022/06/29 02:58:34;;;;;;;5.10;4.70;;;15.20;99.90;;;;;;5039954;28;20279;-83
2022/06/29 03:01:01;;;;;;;9.33;5.33;;;15.20;99.90;;;;;;5040222;28;20197;-85
2022/06/29 03:03:28;;;;;;;6.07;5.20;;;15.20;99.90;;;;;;5038034;28;20213;-83
2022/06/29 03:05:55;;;;;;;5.53;4.60;;;15.10;99.90;;;;;;5038113;28;20661;-83
2022/06/29 03:08:21;;;;;;;7.43;5.57;;;15.10;99.90;;;;;;5040351;28;20264;-83
2022/06/29 03:10:50;;;;;;;6.50;5.40;;;15.10;99.90;;;;;;5041025;28;20677;-85
2022/06/29 03:13:17;;;;;;;6.23;5.50;;;15.00;99.90;;;;;;5039624;28;20263;-84
2022/06/29 03:15:43;;;;;;;7.17;4.97;;;15.00;99.90;;;;;;5038353;28;20228;-79
2022/06/29 03:18:10;;;;;;;5.73;5.03;;;14.90;99.90;;;;;;5040711;28;20271;-82
2022/06/29 03:20:37;;;;;;;7.23;5.50;;;14.90;99.90;;;;;;5039959;28;20626;-83
2022/06/29 03:23:04;;;;;;;6.80;5.33;;;14.90;99.90;;;;;;5037188;28;20214;-84
2022/06/29 03:25:32;;;;;;;6.37;5.50;;;14.90;99.90;;;;;;5038464;28;20217;-83
2022/06/29 03:27:59;;;;;;;7.80;6.00;;;14.80;99.90;;;;;;5038218;28;20686;-84
2022/06/29 03:30:25;;;;;;;6.03;5.43;;;14.90;99.90;;;;;;5036641;28;20338;-84
2022/06/29 03:32:52;;;;;;;6.70;4.70;;;14.80;99.90;;;;;;5071523;28;20324;-84
2022/06/29 03:35:19;;;;;;;8.23;5.30;;;14.80;99.90;;;;;;5028579;28;20225;-84
2022/06/29 03:37:46;;;;;;;8.23;5.53;;;14.90;99.90;;;;;;5028678;28;20367;-83
2022/06/29 03:40:13;;;;;;;6.90;5.53;;;14.80;99.90;;;;;;5029160;28;20819;-85
2022/06/29 03:42:40;;;;;;;5.53;4.83;;;14.80;99.90;;;;;;5060383;28;20263;-83
2022/06/29 03:45:07;;;;;;;6.60;5.97;;;14.80;99.90;;;;;;5028896;28;20615;-83
2022/06/29 03:47:34;;;;;;;6.23;5.63;;;14.80;99.90;;;;;;5028310;28;20226;-84
2022/06/29 03:50:01;;;;;;;5.93;4.50;;;14.80;99.90;;;;;;5036420;28;20740;-83
2022/06/29 03:52:27;;;;;;;5.47;4.90;;;14.90;99.90;;;;;;5037784;28;20221;-84
2022/06/29 03:54:54;;;;;;;8.63;5.73;;;14.90;99.90;;;;;;5038794;28;20240;-84
2022/06/29 03:57:21;;;;;;;6.73;5.50;;;15.00;99.90;;;;;;5038331;28;20272;-84
2022/06/29 03:59:48;;;;;;;8.00;4.80;;;15.00;99.90;;;;;;5037697;28;20225;-83
2022/06/29 04:02:15;;;;;;;7.07;5.13;;;15.00;99.90;;;;;;5043983;28;20270;-83
2022/06/29 04:04:41;;;;;;;6.20;4.97;;;15.10;99.90;;;;;;5035338;28;20214;-83
2022/06/29 04:07:08;;;;;;;5.63;5.13;;;15.10;99.90;;;;;;5039357;28;20283;-82
2022/06/29 04:09:35;;;;;;;5.57;5.07;;;15.10;99.90;;;;;;5036854;28;20530;-84
2022/06/29 04:12:03;;;;;;;7.57;5.70;;;15.10;99.90;;;;;;5038015;28;20232;-84
2022/06/29 04:14:30;;;;;;;5.33;4.83;;;15.10;99.90;;;;;;5040289;28;20660;-84
2022/06/29 04:16:58;;;;;;;6.40;5.80;;;15.10;99.90;;;;;;5036136;28;20701;-84
2022/06/29 04:19:25;;;;;;;6.53;5.83;;;15.10;99.90;;;;;;5039314;28;20275;-83
2022/06/29 04:21:53;;;;;;;6.53;5.63;;;15.10;99.90;;;;;;5035170;28;20209;-83
2022/06/29 04:24:20;;;;;;;7.50;5.87;;;15.10;99.90;;;;;;5039043;28;20656;-83
2022/06/29 04:26:47;;;;;;;6.53;5.80;;;15.10;99.90;;;;;;5036422;28;20735;-83
2022/06/29 04:29:14;;;;;;;8.97;5.87;;;15.20;99.90;;;;;;5036916;28;20197;-83
2022/06/29 04:31:41;;;;;;;7.80;5.80;;;15.20;99.90;;;;;;5040297;28;20246;-83
2022/06/29 04:34:08;;;;;;;8.30;5.93;;;15.20;99.90;;;;;;5045772;28;20359;-83
2022/06/29 04:36:35;;;;;;;7.97;6.00;;;15.30;99.90;;;;;;5041373;28;20211;-83
2022/06/29 04:39:02;;;;;;;6.20;5.63;;;15.30;99.90;;;;;;5042618;28;20227;-84
2022/06/29 04:41:29;;;;;;;7.80;6.60;;;15.30;99.90;;;;;;5039431;28;20814;-84
2022/06/29 04:43:56;;;;;;;6.80;6.10;;;15.40;99.90;;;;;;5036311;28;20220;-84
2022/06/29 04:46:23;;;;;;;7.00;6.10;;;15.40;99.90;;;;;;5039517;28;20220;-83
2022/06/29 04:48:58;;;;;;;8.00;5.83;;;15.40;99.90;;;;;;5036569;28;20226;-83
2022/06/29 04:51:27;;;;;;;7.27;5.67;;;15.50;99.90;;;;;;5036193;28;20532;-83
2022/06/29 04:53:56;;;;;;;6.37;5.77;;;15.60;99.90;;;;;;5034156;28;20364;-83
2022/06/29 04:56:28;;;;;;;7.33;6.60;;;15.60;99.90;;;;;;5038115;28;20216;-82
2022/06/29 04:58:56;;;;;;;6.73;6.13;;;15.60;99.90;;;;;;5037923;28;20932;-84
2022/06/29 05:01:24;;;;;;;7.97;6.50;;;15.70;99.90;;;;;;5039291;28;20217;-84
2022/06/29 05:03:52;;;;;;;8.37;6.60;;;15.80;99.90;;;;;;5038700;28;20650;-84
2022/06/29 05:06:20;;;;;;;7.03;6.10;;;15.90;99.90;;;;;;5027650;28;20332;-85
2022/06/29 05:08:50;;;;;;;12.40;6.90;;;16.00;99.90;;;;;;5027608;28;20205;-85
2022/06/29 05:11:18;;;;;;;8.50;6.83;;;16.00;99.90;;;;;;5027545;28;20243;-85
2022/06/29 05:13:46;;;;;;;7.30;6.60;;;16.20;99.90;;;;;;5027393;28;20309;-86
2022/06/29 05:16:13;;;;;;;7.87;6.93;;;16.20;99.90;;;;;;5028795;28;20294;-82
2022/06/29 05:18:40;;;;;;;7.90;7.10;;;16.30;99.90;;;;;;5029121;28;20239;-84
2022/06/29 05:21:09;;;;;;;7.30;6.67;;;16.40;99.90;;;;;;5030920;28;20716;-83
2022/06/29 05:23:36;;;;;;;9.00;7.47;;;16.50;99.90;;;;;;5041310;28;20211;-84
2022/06/29 05:26:03;;;;;;;9.00;7.50;;;16.70;99.90;;;;;;5040570;28;20213;-83
2022/06/29 05:28:30;;;;;;;7.60;6.40;;;16.80;99.90;;;;;;5040261;28;20635;-83
2022/06/29 05:30:56;;;;;;;9.20;6.15;;;17.50;99.90;;;;;;5037154;28;20230;-82
2022/06/29 05:33:23;;;;;;;6.03;5.35;;;18.60;99.90;;;;;;5042704;28;20221;-81
2022/06/29 05:35:50;;;;;;;6.05;5.30;;;19.90;99.90;;;;;;5043199;28;20653;-83
2022/06/29 05:38:17;;;;;;;7.05;5.10;;;21.20;99.90;;;;;;5043600;28;20657;-82
2022/06/29 05:40:45;;;;;;;6.00;4.63;;;22.50;99.90;;;;;;5043189;28;20217;-82
2022/06/29 05:43:11;;;;;;;5.30;4.60;;;23.60;99.90;;;;;;5039761;28;20236;-83
2022/06/29 05:45:38;;;;;;;5.65;4.50;;;24.60;99.90;;;;;;5074922;28;20217;-82
2022/06/29 05:48:05;;;;;;;6.07;4.50;;;25.40;99.90;;;;;;5039205;28;20218;-82
2022/06/29 05:50:32;;;;;;;4.20;3.80;;;26.30;99.90;;;;;;5040999;28;20253;-83
2022/06/29 05:52:59;;;;;;;4.93;4.20;;;27.00;99.90;;;;;;5041053;28;20220;-82
2022/06/29 05:55:26;;;;;;;4.13;3.72;;;27.60;99.90;;;;;;5043014;28;20224;-82
2022/06/29 05:57:53;;;;;;;4.25;3.85;;;28.10;99.90;;;;;;5042867;28;20209;-82
2022/06/29 06:00:20;;;;;;;6.18;3.88;;;28.50;99.90;;;;;;5038551;28;20271;-82
2022/06/29 06:02:51;;;;;;;5.53;4.57;;;29.00;99.90;;;;;;5042032;28;20249;-82
2022/06/29 06:05:18;;;;;;;4.53;3.58;;;29.50;99.90;;;;;;5042903;28;20622;-81
2022/06/29 06:07:45;;;;;;;4.63;3.90;;;30.00;99.90;;;;;;5042870;28;20278;-82
2022/06/29 06:10:12;;;;;;;4.30;3.90;;;30.30;99.00;;;;;;5038492;28;20263;-82
2022/06/29 06:12:38;;;;;;;5.57;4.50;;;30.60;97.40;;;;;;5041763;28;20266;-81
2022/06/29 06:15:07;;;;;;;5.47;4.50;;;30.70;96.30;;;;;;5039558;28;20680;-80
2022/06/29 06:17:34;;;;;;;6.03;3.88;;;30.90;95.50;;;;;;5040149;28;21073;-81
2022/06/29 06:20:02;;;;;;;4.75;4.05;;;31.00;94.90;;;;;;5040550;28;20665;-82
2022/06/29 06:22:30;;;;;;;5.13;3.90;;;31.00;94.30;;;;;;5037682;28;20713;-82
2022/06/29 06:24:58;;;;;;;6.40;4.22;;;31.20;93.60;;;;;;5041426;28;20213;-82
2022/06/29 06:27:25;;;;;;;4.80;3.60;;;31.30;93.10;;;;;;5037616;28;20281;-81
2022/06/29 06:29:51;;;;;;;8.93;3.90;;;31.40;92.50;;;;;;5041024;28;20201;-82
2022/06/29 06:32:18;;;;;;;4.20;3.78;;;31.70;91.70;;;;;;5039209;28;20248;-81
2022/06/29 06:34:45;;;;;;;5.32;3.53;;;31.90;91.20;;;;;;5039086;28;20214;-82
2022/06/29 06:37:12;;;;;;;5.00;4.13;;;32.00;90.90;;;;;;5040289;28;20616;-82
2022/06/29 06:39:39;;;;;;;6.10;4.45;;;32.20;90.40;;;;;;5036191;28;20245;-81
2022/06/29 06:42:05;;;;;;;3.95;3.53;;;32.40;90.00;;;;;;5041401;28;20213;-81
2022/06/29 06:44:32;;;;;;;5.38;3.97;;;32.50;90.20;;;;;;5037905;28;20246;-81
2022/06/29 06:47:00;;;;;;;6.95;4.57;;;32.70;88.40;;;;;;5038894;28;20283;-82
2022/06/29 06:49:27;;;;;;;5.90;4.28;;;32.80;87.30;;;;;;5039993;28;20221;-81
2022/06/29 06:51:54;;;;;;;4.57;3.88;;;32.90;86.30;;;;;;5038186;28;20242;-81
2022/06/29 06:54:21;;;;;;;6.47;4.28;;;;;;;;;;5040733;28;20206;-82
2022/06/29 06:56:48;;;;;;;4.85;4.28;;;32.40;84.40;;;;;;5038757;28;20275;-80
2022/06/29 06:59:15;;;;;;;5.20;4.03;;;32.20;85.20;;;;;;5039973;28;20286;-82
2022/06/29 07:01:42;;;;;;;4.95;4.43;;;31.80;85.20;;;;;;5041045;28;20211;-81
2022/06/29 07:04:15;;;;;;;6.00;4.18;;;31.70;86.00;;;;;;5041123;28;20589;-80
2022/06/29 07:06:42;;;;;;;6.50;4.15;;;31.70;86.20;;;;;;5028551;28;20752;-81
2022/06/29 07:09:09;;;;;;;5.25;3.85;;;31.80;85.30;;;;;;5029159;28;20471;-80
2022/06/29 07:11:36;;;;;;;4.90;3.92;;;31.90;85.00;;;;;;5033590;28;20229;-81
2022/06/29 07:14:03;;;;;;;4.22;3.05;;;32.00;84.40;;;;;;5029369;28;20206;-81
2022/06/29 07:16:30;;;;;;;4.57;2.75;;;32.20;84.00;;;;;;5028227;28;20709;-81
2022/06/29 07:18:57;;;;;;;3.30;3.00;;;32.40;83.00;;;;;;5028497;28;20791;-80
2022/06/29 07:21:24;;;;;;;4.47;3.20;;;32.40;82.10;;;;;;5034179;28;20210;-80
2022/06/29 07:23:51;;;;;;;7.18;2.92;;;32.30;81.70;;;;;;5039373;28;20205;-81
2022/06/29 07:26:18;;;;;;;5.18;2.97;;;32.20;81.40;;;;;;5036482;28;20278;-80
2022/06/29 07:28:44;;;;;;;3.80;3.40;;;32.20;80.90;;;;;;5038695;28;20689;-81
2022/06/29 07:31:11;;;;;;;3.53;2.88;;;31.90;80.70;;;;;;5037387;28;20288;-80
2022/06/29 07:33:38;;;;;;;4.68;3.17;;;31.50;81.60;;;;;;5039706;28;20224;-78
2022/06/29 07:36:05;;;;;;;3.47;3.17;;;31.10;82.10;;;;;;5040413;28;20209;-79
2022/06/29 07:38:33;;;;;;;4.55;3.05;;;30.70;82.10;;;;;;5037442;28;20217;-80
2022/06/29 07:41:00;;;;;;;5.85;3.42;;;30.40;82.30;;;;;;5038415;28;20658;-80
2022/06/29 07:43:28;;;;;;;4.53;3.40;;;;;;;;;;5039567;28;20569;-81
2022/06/29 07:45:57;;;;;;;4.85;3.30;;;29.40;83.30;;;;;;5037115;28;20267;-81
2022/06/29 07:48:24;;;;;;;3.10;2.80;;;28.90;84.70;;;;;;5036301;28;20359;-81
2022/06/29 07:50:52;;;;;;;4.03;3.47;;;28.40;85.90;;;;;;5035326;28;20212;-81
2022/06/29 07:53:19;;;;;;;4.80;3.22;;;27.90;87.20;;;;;;5037494;28;20264;-80
2022/06/29 07:55:46;;;;;;;4.10;3.75;;;27.70;88.30;;;;;;5037347;28;20205;-81
2022/06/29 07:58:16;;;;;;;6.28;3.35;;;27.80;89.00;;;;;;5038312;28;20266;-80
2022/06/29 08:00:44;;;;;;;4.35;3.40;;;28.20;89.30;;;;;;5040540;28;20734;-80
2022/06/29 08:03:11;;;;;;;4.93;3.60;;;28.70;89.50;;;;;;5038967;28;20290;-80
2022/06/29 08:05:45;;;;;;;6.25;3.63;;;29.30;88.10;;;;;;5068478;28;20549;-80
2022/06/29 08:08:12;;;;;;;6.05;2.90;;;29.80;87.70;;;;;;5036788;28;20206;-83
2022/06/29 08:10:39;;;;;;;4.78;3.45;;;30.30;87.30;;;;;;5036410;28;20256;-82
2022/06/29 08:13:06;;;;;;;4.05;3.38;;;30.70;85.40;;;;;;5038209;28;20213;-79
2022/06/29 08:15:34;;;;;;;6.25;3.35;;;31.10;83.30;;;;;;5037055;28;20596;-80
2022/06/29 08:18:02;;;;;;;4.50;3.20;;;31.30;82.10;;;;;;5037898;28;20315;-80
2022/06/29 08:20:29;;;;;;;4.38;3.30;;;31.70;80.60;;;;;;5038351;28;20223;-82
2022/06/29 08:22:56;;;;;;;7.22;3.13;;;31.80;79.70;;;;;;5036020;28;20550;-81
2022/06/29 08:25:22;;;;;;;3.38;2.80;;;32.00;79.10;;;;;;5037540;28;20204;-81
2022/06/29 08:27:52;;;;;;;5.50;2.95;;;32.20;78.80;;;;;;5037251;28;20206;-80
2022/06/29 08:30:19;;;;;;;3.60;3.08;;;32.40;78.60;;;;;;5039756;28;20214;-80
2022/06/29 08:32:46;;;;;;;3.60;2.80;;;32.60;77.90;;;;;;5036452;28;20268;-82
2022/06/29 08:35:15;;;;;;;4.30;2.35;;;32.70;77.10;;;;;;5038938;28;20207;-80
2022/06/29 08:37:44;;;;;;;5.85;2.50;;;32.70;75.90;;;;;;5036454;28;20677;-80
2022/06/29 08:40:15;;;;;;;2.90;2.60;;;32.70;75.60;;;;;;5038480;28;20205;-80
2022/06/29 08:42:44;;;;;;;5.22;2.70;;;32.70;74.50;;;;;;5038230;28;20213;-81
2022/06/29 08:45:12;;;;;;;2.83;2.30;;;32.50;75.60;;;;;;5036643;28;20264;-81
2022/06/29 08:47:42;;;;;;;4.07;2.33;;;32.20;75.60;;;;;;5027369;28;20261;-80
2022/06/29 08:50:10;;;;;;;6.28;2.40;;;32.10;76.10;;;;;;5027814;28;20237;-82
2022/06/29 08:52:38;;;;;;;3.75;2.15;;;32.10;75.60;;;;;;5027047;28;20233;-79
2022/06/29 08:55:08;;;;;;;4.40;2.17;;;32.10;75.80;;;;;;5027530;28;20209;-80
2022/06/29 08:57:39;;;;;;;4.00;2.17;;;32.20;76.10;;;;;;5027560;28;20259;-80
2022/06/29 09:00:08;;;;;;;5.82;2.30;;;32.40;75.40;;;;;;5037368;28;20213;-80
2022/06/29 09:02:36;;;;;;;4.85;2.30;;;32.70;75.80;;;;;;5037217;28;20225;-81
2022/06/29 09:05:04;;;;;;;3.05;1.75;;;32.90;75.60;;;;;;5035859;28;20213;-81
2022/06/29 09:07:31;;;;;;;3.15;1.90;;;33.10;73.60;;;;;;5038376;28;20217;-81
2022/06/29 09:10:11;;;;;;;3.70;1.98;;;33.10;72.20;;;;;;5035006;28;20630;-80
2022/06/29 09:12:39;;;;;;;2.10;1.80;;;33.00;71.10;;;;;;5035340;28;20260;-80
2022/06/29 09:15:07;;;;;;;3.60;1.73;;;33.10;70.70;;;;;;5039601;28;20988;-81
2022/06/29 09:17:35;;;;;;;3.10;2.20;;;33.30;71.40;;;;;;5037909;28;20241;-81
2022/06/29 09:20:04;;;;;;;2.70;1.75;;;33.40;70.50;;;;;;5037584;28;20309;-80
2022/06/29 09:22:53;;;;;;;5.35;2.10;;;33.50;70.70;;;;;;5038964;28;20584;-83
2022/06/29 09:25:28;;;;;;;3.03;1.70;;;33.70;69.10;;;;;;5038153;28;20585;-82
2022/06/29 09:27:55;;;;;;;2.55;1.58;;;33.70;69.50;;;;;;5037653;28;20710;-81
2022/06/29 09:30:29;;;;;;;2.50;1.70;;;33.70;69.90;;;;;;5037025;28;20248;-81
2022/06/29 09:33:06;;;;;;;2.33;1.40;;;33.70;69.50;;;;;;5039859;28;20705;-82
2022/06/29 09:35:35;;;;;;;3.10;1.60;;;33.90;69.40;;;;;;5039481;28;20236;-81
2022/06/29 09:38:17;;;;;;;1.60;1.38;;;33.90;68.00;;;;;;5041212;28;20227;-80
2022/06/29 09:41:11;;;;;;;3.35;1.70;;;33.90;67.80;;;;;;5030669;28;20209;-80
2022/06/29 09:43:44;;;;;;;3.92;1.52;;;34.00;67.10;;;;;;5030669;28;20220;-81
2022/06/29 09:46:13;;;;;;;3.35;1.83;;;34.00;67.60;;;;;;5029694;28;20272;-80
2022/06/29 09:48:42;;;;;;;2.15;1.70;;;33.90;68.60;;;;;;5033259;28;20244;-81
2022/06/29 09:54:05;;;;;;;3.42;1.80;;;33.90;67.90;;;;;;5035436;28;20209;-81
2022/06/29 09:56:33;;;;;;;2.65;1.50;;;33.90;67.60;;;;;;5037759;28;20210;-81
2022/06/29 09:59:01;;;;;;;2.38;1.67;;;33.90;66.30;;;;;;5037532;28;20209;-80
2022/06/29 10:04:15;;;;;;;2.50;1.70;;;33.70;65.70;;;;;;5037321;28;20312;-80
2022/06/29 10:06:44;;;;;;;2.17;1.38;;;33.50;65.30;;;;;;5035654;28;20217;-81
2022/06/29 10:09:11;;;;;;;2.72;1.50;;;33.30;65.50;;;;;;5027170;28;20269;-79
2022/06/29 10:15:19;;;;;;;1.70;1.38;;;33.00;65.50;;;;;;5027067;28;20220;-80
2022/06/29 10:17:58;;;;;;;2.45;1.83;;;33.10;65.80;;;;;;5036739;28;20229;-80
2022/06/29 10:20:45;;;;;;;2.42;1.38;;;33.10;64.70;;;;;;5039725;28;20220;-81
2022/06/29 10:23:48;;;;;;;3.70;1.42;;;33.10;64.40;;;;;;5056474;28;20322;-79
2022/06/29 10:26:36;;;;;;;4.90;1.30;;;33.00;63.40;;;;;;5035607;28;20263;-80
2022/06/29 10:29:05;;;;;;;1.60;1.45;;;32.90;63.70;;;;;;5038752;28;20217;-79
2022/06/29 10:31:51;;;;;;;2.25;1.23;;;32.80;63.80;;;;;;5041217;28;20524;-80
2022/06/29 10:37:08;;;;;;;4.15;1.60;;;32.80;64.00;;;;;;5030410;28;20709;-80
2022/06/29 10:39:51;;;;;;;3.15;1.50;;;32.90;64.40;;;;;;5030503;28;20325;-79
2022/06/29 10:45:18;;;;;;;5.13;1.33;;;33.00;64.20;;;;;;5041514;28;20223;-81
2022/06/29 10:47:47;;;;;;;3.85;1.35;;;33.10;63.60;;;;;;5039911;28;20693;-81
2022/06/29 10:50:18;;;;;;;4.63;1.40;;;33.20;64.00;;;;;;5039303;28;20628;-79
2022/06/29 10:52:46;;;;;;;1.67;1.42;;;32.90;63.50;;;;;;5039961;28;20241;-79
2022/06/29 10:55:14;;;;;;;1.85;1.30;;;32.80;63.80;;;;;;5040621;28;20211;-81
2022/06/29 10:57:43;;;;;;;3.88;1.45;;;32.50;63.60;;;;;;5039047;28;20725;-79
2022/06/29 11:00:33;;;;;;;5.05;2.47;;;32.40;64.30;;;;;;5038693;28;20752;-81
2022/06/29 11:03:14;;;;;;;3.35;1.40;;;32.10;64.00;;;;;;5034598;28;20228;-80
2022/06/29 11:15:39;;;;;;;2.60;1.33;;;31.70;65.80;;;;;;5037543;28;20305;-79
2022/06/29 11:16:56;;;;;;;2.15;1.50;;;31.70;65.70;;;;;;5036592;28;20261;-76
2022/06/29 11:19:29;;;;;;;2.58;1.58;;;31.70;65.70;;;;;;5039805;28;20228;-77
2022/06/29 11:22:18;;;;;;;3.33;1.70;;;31.90;65.50;;;;;;5037945;28;20712;-78
2022/06/29 11:25:00;;;;;;;3.95;1.55;;;31.90;66.30;;;;;;5038547;28;20221;-79
2022/06/29 11:27:35;;;;;;;2.22;1.58;;;31.70;66.80;;;;;;5037420;28;20210;-79
2022/06/29 11:30:10;;;;;;;2.50;1.55;;;31.60;67.80;;;;;;5037570;28;20220;-78
2022/06/29 11:32:47;;;;;;;2.65;1.50;;;31.50;68.80;;;;;;5036363;28;20245;-80
2022/06/29 11:35:21;;;;;;;3.28;1.77;;;31.40;68.40;;;;;;5037918;28;20543;-79
2022/06/29 11:38:02;;;;;;;1.40;1.30;;;31.40;68.00;;;;;;5028290;28;20213;-80
2022/06/29 11:40:41;;;;;;;3.47;1.40;;;31.30;66.90;;;;;;5028095;28;20216;-79
2022/06/29 11:43:16;;;;;;;2.75;1.48;;;31.10;67.20;;;;;;5028587;28;20248;-81
2022/06/29 11:45:46;;;;;;;1.92;1.38;;;31.10;68.50;;;;;;5028254;28;20224;-81
2022/06/29 11:48:14;;;;;;;2.85;1.40;;;31.30;67.10;;;;;;5039494;28;20217;-77
2022/06/29 11:50:54;;;;;;;1.77;1.48;;;31.30;65.80;;;;;;5037199;28;20194;-79
2022/06/29 11:53:42;;;;;;;3.58;1.85;;;31.40;66.40;;;;;;5035646;28;20484;-79
2022/06/29 11:56:14;;;;;;;2.72;1.27;;;31.60;65.70;;;;;;5039327;28;20232;-80
2022/06/29 11:58:43;;;;;;;2.00;1.17;;;31.60;65.20;;;;;;5036827;28;20321;-78
2022/06/29 12:01:11;;;;;;;5.18;1.30;;;31.60;64.40;;;;;;5040310;28;20272;-77
2022/06/29 12:03:39;;;;;;;5.50;1.42;;;31.70;64.50;;;;;;5036551;28;20733;-78
2022/06/29 12:06:06;;;;;;;3.88;1.65;;;31.70;65.70;;;;;;5038684;28;20209;-76
2022/06/29 12:08:33;;;;;;;4.22;1.45;;;31.70;65.00;;;;;;5036465;28;20759;-79
2022/06/29 12:11:00;;;;;;;1.73;1.25;;;31.80;64.60;;;;;;5036069;28;20661;-80
2022/06/29 12:13:27;;;;;;;1.80;1.20;;;31.70;63.60;;;;;;5038650;28;20251;-79
2022/06/29 12:15:53;;;;;;;5.13;1.27;;;31.60;63.50;;;;;;5037112;28;20303;-80
2022/06/29 12:18:20;;;;;;;5.35;1.58;;;31.40;64.70;;;;;;5037647;28;20225;-79
2022/06/29 12:20:47;;;;;;;7.03;2.20;;;31.30;65.90;;;;;;5036212;28;20719;-80
2022/06/29 12:23:14;;;;;;;2.92;1.40;;;31.30;65.50;;;;;;5035318;28;20218;-80
2022/06/29 12:25:41;;;;;;;1.73;1.20;;;31.40;65.00;;;;;;5035512;28;20260;-80
2022/06/29 12:28:08;;;;;;;2.55;1.30;;;31.50;64.30;;;;;;5036092;28;20246;-78
2022/06/29 12:30:34;;;;;;;2.97;1.35;;;31.60;63.70;;;;;;5037592;28;20278;-81
2022/06/29 12:33:02;;;;;;;3.97;1.40;;;31.60;63.60;;;;;;5037665;28;20237;-80
2022/06/29 12:35:29;;;;;;;6.63;1.58;;;31.60;63.90;;;;;;5036140;28;20213;-79
2022/06/29 12:37:59;;;;;;;1.52;1.20;;;31.60;64.20;;;;;;5039320;28;20213;-80
2022/06/29 12:40:26;;;;;;;1.65;1.48;;;31.60;63.90;;;;;;5035378;28;20205;-80
2022/06/29 12:42:53;;;;;;;5.72;1.38;;;31.50;62.90;;;;;;5036493;28;20271;-80
2022/06/29 12:45:20;;;;;;;2.08;1.40;;;31.30;63.10;;;;;;5036820;28;20292;-80
2022/06/29 12:47:47;;;;;;;1.98;1.40;;;31.20;63.50;;;;;;5036787;28;20229;-79
2022/06/29 12:50:13;;;;;;;2.22;1.50;;;31.00;64.20;;;;;;5035671;28;20239;-80
2022/06/29 12:52:46;;;;;;;2.60;1.48;;;31.00;64.90;;;;;;5035268;28;20705;-80
2022/06/29 12:55:17;;;;;;;3.05;1.48;;;31.10;65.60;;;;;;5037756;28;20201;-78
2022/06/29 12:57:45;;;;;;;5.53;2.00;;;31.20;65.60;;;;;;5037963;28;20221;-79
2022/06/29 13:00:13;;;;;;;5.45;1.63;;;31.30;65.00;;;;;;5035180;28;20213;-80
2022/06/29 13:02:40;;;;;;;4.43;1.40;;;31.30;64.60;;;;;;5036318;28;20697;-80
2022/06/29 13:05:08;;;;;;;3.55;1.48;;;31.20;64.20;;;;;;5037886;28;20217;-81
2022/06/29 13:07:38;;;;;;;2.50;1.40;;;31.30;64.20;;;;;;5036714;28;20213;-81
2022/06/29 13:10:09;;;;;;;4.10;1.90;;;31.40;65.40;;;;;;5035869;28;20221;-80
2022/06/29 13:12:36;;;;;;;2.85;1.75;;;31.50;65.40;;;;;;5026366;28;20240;-82
2022/06/29 13:15:03;;;;;;;2.92;1.20;;;31.50;65.20;;;;;;5027892;28;20210;-81
2022/06/29 13:17:30;;;;;;;1.63;1.52;;;31.50;64.60;;;;;;5026852;28;20386;-80
2022/06/29 13:19:57;;;;;;;4.38;1.90;;;31.60;65.10;;;;;;5026875;28;20252;-79
2022/06/29 13:22:24;;;;;;;2.40;1.80;;;31.60;65.40;;;;;;5033260;28;20271;-80
2022/06/29 13:24:51;;;;;;;2.33;1.73;;;31.70;65.30;;;;;;5034130;28;20808;-80